createdAt,value
2018-01-03T00:00:36.102Z,990.21
2018-01-03T00:01:36.135Z,990.20
2018-01-03T00:02:36.165Z,990.21
2018-01-03T00:03:36.192Z,990.23
2018-01-03T00:04:36.220Z,990.27
2018-01-03T00:05:36.251Z,990.21
2018-01-03T00:06:36.284Z,990.17
2018-01-03T00:07:36.309Z,990.16
2018-01-03T00:08:36.342Z,990.09
2018-01-03T00:09:36.371Z,990.26
2018-01-03T00:10:36.401Z,990.17
2018-01-03T00:11:36.429Z,990.18
2018-01-03T00:12:36.457Z,990.16
2018-01-03T00:13:36.487Z,990.20
2018-01-03T00:14:36.520Z,990.22
2018-01-03T00:15:36.547Z,990.10
2018-01-03T00:16:36.576Z,990.05
2018-01-03T00:17:36.592Z,989.96
2018-01-03T00:18:36.636Z,990.00
2018-01-03T00:19:36.668Z,989.94
2018-01-03T00:20:36.683Z,989.93
2018-01-03T00:21:36.725Z,989.89
2018-01-03T00:22:36.742Z,989.80
2018-01-03T00:23:36.782Z,989.83
2018-01-03T00:24:36.813Z,989.79
2018-01-03T00:25:36.830Z,989.83
2018-01-03T00:26:36.873Z,989.66
2018-01-03T00:27:36.906Z,989.72
2018-01-03T00:28:36.930Z,989.56
2018-01-03T00:29:36.948Z,989.51
2018-01-03T00:30:36.991Z,989.48
2018-01-03T00:31:37.009Z,989.41
2018-01-03T00:32:37.051Z,989.40
2018-01-03T00:33:37.079Z,989.32
2018-01-03T00:34:37.109Z,989.27
2018-01-03T00:35:37.129Z,989.28
2018-01-03T00:36:37.156Z,989.29
2018-01-03T00:37:37.186Z,989.32
2018-01-03T00:38:37.217Z,989.23
2018-01-03T00:39:37.252Z,989.14
2018-01-03T00:40:37.276Z,989.12
2018-01-03T00:41:37.318Z,989.06
2018-01-03T00:42:37.337Z,988.96
2018-01-03T00:43:37.366Z,988.95
2018-01-03T00:44:37.396Z,988.87
2018-01-03T00:45:37.436Z,988.78
2018-01-03T00:46:37.455Z,988.73
2018-01-03T00:47:37.485Z,988.71
2018-01-03T00:48:37.519Z,988.58
2018-01-03T00:49:37.545Z,988.61
2018-01-03T00:50:37.580Z,988.54
2018-01-03T00:51:37.605Z,988.50
2018-01-03T00:52:37.635Z,988.56
2018-01-03T00:53:37.663Z,988.57
2018-01-03T00:54:37.692Z,988.62
2018-01-03T00:55:37.722Z,988.61
2018-01-03T00:56:37.752Z,988.53
2018-01-03T00:57:37.782Z,988.61
2018-01-03T00:58:37.813Z,988.60
2018-01-03T00:59:37.842Z,988.50
2018-01-03T01:00:37.870Z,988.52
2018-01-03T01:01:37.901Z,988.51
2018-01-03T01:02:37.930Z,988.64
2018-01-03T01:03:37.961Z,988.54
2018-01-03T01:04:37.990Z,988.50
2018-01-03T01:05:38.020Z,988.52
2018-01-03T01:06:38.048Z,988.47
2018-01-03T01:07:38.079Z,988.59
2018-01-03T01:08:38.109Z,988.61
2018-01-03T01:09:38.139Z,988.61
2018-01-03T01:10:38.168Z,988.62
2018-01-03T01:11:38.200Z,988.55
2018-01-03T01:12:38.228Z,988.65
2018-01-03T01:13:38.257Z,988.74
2018-01-03T01:14:38.288Z,988.87
2018-01-03T01:15:38.319Z,988.82
2018-01-03T01:16:38.347Z,988.92
2018-01-03T01:17:38.379Z,988.67
2018-01-03T01:18:38.407Z,988.68
2018-01-03T01:19:38.438Z,988.76
2018-01-03T01:20:38.466Z,988.59
2018-01-03T01:21:38.497Z,988.78
2018-01-03T01:22:38.527Z,988.62
2018-01-03T01:23:38.557Z,988.61
2018-01-03T01:24:38.585Z,988.45
2018-01-03T01:25:38.616Z,988.34
2018-01-03T01:26:38.647Z,988.38
2018-01-03T01:27:38.677Z,988.29
2018-01-03T01:28:38.706Z,988.15
2018-01-03T01:29:38.736Z,988.19
2018-01-03T01:30:38.766Z,988.07
2018-01-03T01:31:38.796Z,988.00
2018-01-03T01:32:38.825Z,988.01
2018-01-03T01:33:38.856Z,987.89
2018-01-03T01:34:38.887Z,987.85
2018-01-03T01:35:38.917Z,987.90
2018-01-03T01:36:38.946Z,988.12
2018-01-03T01:37:38.975Z,987.93
2018-01-03T01:38:39.006Z,988.14
2018-01-03T01:39:39.038Z,988.14
2018-01-03T01:40:39.066Z,988.07
2018-01-03T01:41:39.096Z,988.05
2018-01-03T01:42:39.125Z,988.06
2018-01-03T01:43:39.156Z,987.86
2018-01-03T01:44:39.185Z,987.94
2018-01-03T01:45:39.219Z,987.87
2018-01-03T01:46:39.247Z,987.96
2018-01-03T01:47:39.276Z,987.75
2018-01-03T01:48:39.306Z,987.83
2018-01-03T01:49:39.337Z,987.79
2018-01-03T01:50:39.365Z,987.87
2018-01-03T01:51:39.395Z,987.80
2018-01-03T01:52:39.425Z,987.77
2018-01-03T01:53:39.457Z,987.85
2018-01-03T01:54:39.487Z,987.78
2018-01-03T01:55:39.518Z,987.81
2018-01-03T01:56:39.553Z,987.70
2018-01-03T01:57:39.577Z,987.72
2018-01-03T01:58:39.609Z,987.63
2018-01-03T01:59:39.638Z,987.59
2018-01-03T02:00:39.668Z,987.64
2018-01-03T02:01:39.744Z,987.59
2018-01-03T02:02:39.729Z,987.50
2018-01-03T02:03:39.758Z,987.62
2018-01-03T02:04:39.789Z,987.57
2018-01-03T02:05:39.820Z,987.59
2018-01-03T02:06:39.850Z,987.60
2018-01-03T02:07:39.879Z,987.58
2018-01-03T02:08:39.908Z,987.58
2018-01-03T02:09:39.940Z,987.47
2018-01-03T02:10:39.971Z,987.54
2018-01-03T02:11:40.002Z,987.62
2018-01-03T02:12:40.030Z,987.50
2018-01-03T02:13:40.061Z,987.60
2018-01-03T02:14:40.092Z,987.50
2018-01-03T02:15:40.122Z,987.41
2018-01-03T02:16:40.152Z,987.48
2018-01-03T02:17:40.182Z,987.33
2018-01-03T02:18:40.213Z,987.21
2018-01-03T02:19:40.244Z,987.39
2018-01-03T02:20:40.273Z,987.15
2018-01-03T02:21:40.304Z,987.35
2018-01-03T02:22:40.334Z,987.10
2018-01-03T02:23:40.366Z,987.16
2018-01-03T02:24:40.396Z,987.16
2018-01-03T02:25:40.427Z,986.98
2018-01-03T02:26:40.457Z,986.89
2018-01-03T02:27:40.487Z,986.74
2018-01-03T02:28:40.517Z,986.71
2018-01-03T02:29:40.548Z,986.47
2018-01-03T02:30:40.579Z,986.38
2018-01-03T02:31:40.609Z,986.55
2018-01-03T02:32:40.640Z,986.44
2018-01-03T02:33:40.669Z,986.40
2018-01-03T02:34:40.701Z,986.33
2018-01-03T02:35:40.732Z,986.14
2018-01-03T02:36:40.761Z,986.11
2018-01-03T02:37:40.793Z,986.12
2018-01-03T02:38:40.824Z,986.10
2018-01-03T02:39:40.854Z,986.10
2018-01-03T02:40:40.884Z,986.17
2018-01-03T02:41:40.919Z,986.18
2018-01-03T02:42:40.946Z,985.99
2018-01-03T02:43:40.978Z,986.12
2018-01-03T02:44:41.008Z,986.08
2018-01-03T02:45:41.038Z,985.97
2018-01-03T02:46:41.068Z,985.92
2018-01-03T02:47:41.106Z,985.90
2018-01-03T02:48:41.130Z,985.95
2018-01-03T02:49:41.160Z,985.98
2018-01-03T02:50:41.191Z,985.99
2018-01-03T02:51:41.228Z,985.94
2018-01-03T02:52:41.252Z,985.80
2018-01-03T02:53:41.285Z,985.89
2018-01-03T02:54:41.314Z,985.78
2018-01-03T02:55:41.345Z,985.63
2018-01-03T02:56:41.376Z,985.62
2018-01-03T02:57:41.406Z,985.68
2018-01-03T02:58:41.437Z,985.53
2018-01-03T02:59:41.475Z,985.45
2018-01-03T03:00:41.497Z,985.34
2018-01-03T03:01:41.529Z,985.64
2018-01-03T03:02:41.560Z,985.21
2018-01-03T03:03:41.592Z,985.39
2018-01-03T03:04:41.623Z,985.30
2018-01-03T03:05:41.654Z,985.32
2018-01-03T03:06:41.685Z,985.26
2018-01-03T03:07:41.717Z,985.21
2018-01-03T03:08:41.746Z,985.14
2018-01-03T03:09:41.777Z,985.21
2018-01-03T03:10:41.809Z,985.10
2018-01-03T03:11:41.842Z,984.93
2018-01-03T03:12:41.871Z,984.97
2018-01-03T03:13:41.901Z,985.04
2018-01-03T03:14:41.932Z,984.85
2018-01-03T03:15:41.965Z,984.84
2018-01-03T03:16:41.995Z,984.85
2018-01-03T03:17:42.027Z,984.80
2018-01-03T03:18:42.057Z,984.93
2018-01-03T03:19:42.089Z,984.68
2018-01-03T03:20:42.120Z,984.67
2018-01-03T03:21:42.153Z,984.60
2018-01-03T03:22:42.183Z,984.37
2018-01-03T03:23:42.214Z,984.19
2018-01-03T03:24:42.244Z,984.09
2018-01-03T03:25:42.276Z,984.10
2018-01-03T03:26:42.307Z,983.99
2018-01-03T03:27:42.339Z,983.78
2018-01-03T03:28:42.370Z,983.66
2018-01-03T03:29:42.401Z,983.70
2018-01-03T03:30:42.433Z,983.59
2018-01-03T03:31:42.463Z,983.82
2018-01-03T03:32:44.849Z,983.65
2018-01-03T03:33:42.526Z,983.95
2018-01-03T03:34:42.556Z,983.91
2018-01-03T03:35:42.590Z,983.84
2018-01-03T03:36:42.619Z,983.86
2018-01-03T03:37:42.650Z,983.85
2018-01-03T03:38:42.681Z,983.88
2018-01-03T03:39:42.714Z,983.85
2018-01-03T03:40:42.744Z,983.92
2018-01-03T03:41:42.778Z,983.99
2018-01-03T03:42:42.806Z,983.65
2018-01-03T03:43:42.839Z,983.74
2018-01-03T03:44:42.870Z,983.77
2018-01-03T03:45:42.907Z,983.75
2018-01-03T03:46:42.931Z,983.56
2018-01-03T03:47:42.963Z,983.40
2018-01-03T03:48:42.996Z,983.46
2018-01-03T03:49:43.027Z,983.48
2018-01-03T03:50:43.058Z,983.33
2018-01-03T03:51:43.094Z,983.24
2018-01-03T03:52:43.120Z,983.25
2018-01-03T03:53:43.151Z,983.35
2018-01-03T03:54:43.183Z,983.34
2018-01-03T03:55:43.215Z,983.45
2018-01-03T03:56:43.244Z,983.17
2018-01-03T03:57:43.278Z,983.33
2018-01-03T03:58:43.308Z,982.95
2018-01-03T03:59:43.341Z,983.15
2018-01-03T04:00:43.370Z,983.28
2018-01-03T04:01:43.403Z,983.16
2018-01-03T04:02:43.434Z,983.08
2018-01-03T04:03:43.466Z,983.04
2018-01-03T04:04:43.497Z,982.93
2018-01-03T04:05:43.529Z,982.96
2018-01-03T04:06:43.560Z,982.86
2018-01-03T04:07:43.592Z,982.83
2018-01-03T04:08:43.624Z,982.66
2018-01-03T04:09:43.654Z,982.73
2018-01-03T04:10:43.686Z,982.71
2018-01-03T04:11:43.718Z,982.57
2018-01-03T04:12:43.750Z,982.67
2018-01-03T04:13:43.781Z,982.49
2018-01-03T04:14:43.812Z,982.29
2018-01-03T04:15:43.844Z,982.36
2018-01-03T04:16:43.875Z,982.51
2018-01-03T04:17:43.905Z,982.26
2018-01-03T04:18:43.937Z,982.21
2018-01-03T04:19:43.970Z,981.96
2018-01-03T04:20:44.001Z,981.92
2018-01-03T04:21:44.051Z,982.04
2018-01-03T04:22:44.065Z,981.85
2018-01-03T04:23:44.096Z,981.90
2018-01-03T04:24:44.126Z,981.79
2018-01-03T04:25:44.161Z,981.78
2018-01-03T04:26:44.191Z,981.83
2018-01-03T04:27:44.223Z,981.81
2018-01-03T04:28:44.254Z,981.66
2018-01-03T04:29:44.286Z,981.72
2018-01-03T04:30:44.318Z,981.50
2018-01-03T04:31:44.350Z,981.55
2018-01-03T04:32:44.380Z,981.63
2018-01-03T04:33:44.412Z,981.62
2018-01-03T04:34:44.444Z,981.51
2018-01-03T04:35:44.476Z,981.47
2018-01-03T04:36:44.507Z,981.34
2018-01-03T04:37:44.539Z,981.41
2018-01-03T04:38:44.572Z,981.13
2018-01-03T04:39:44.603Z,981.29
2018-01-03T04:40:44.634Z,981.16
2018-01-03T04:41:44.666Z,981.01
2018-01-03T04:42:44.698Z,981.05
2018-01-03T04:43:44.729Z,981.17
2018-01-03T04:44:44.761Z,980.99
2018-01-03T04:45:44.796Z,981.08
2018-01-03T04:46:44.824Z,981.10
2018-01-03T04:47:44.857Z,980.86
2018-01-03T04:48:44.887Z,980.89
2018-01-03T04:49:44.920Z,980.89
2018-01-03T04:50:44.952Z,980.66
2018-01-03T04:51:44.984Z,980.77
2018-01-03T04:52:45.016Z,980.77
2018-01-03T04:53:45.048Z,980.78
2018-01-03T04:54:45.079Z,980.51
2018-01-03T04:55:45.111Z,980.55
2018-01-03T04:56:45.143Z,980.55
2018-01-03T04:57:45.175Z,980.56
2018-01-03T04:58:45.206Z,980.21
2018-01-03T04:59:45.238Z,980.28
2018-01-03T05:00:45.271Z,980.11
2018-01-03T05:01:45.302Z,980.20
2018-01-03T05:02:45.333Z,980.06
2018-01-03T05:03:45.366Z,980.07
2018-01-03T05:04:45.397Z,980.07
2018-01-03T05:05:45.429Z,980.10
2018-01-03T05:06:45.460Z,980.02
2018-01-03T05:07:45.494Z,980.05
2018-01-03T05:08:45.524Z,980.10
2018-01-03T05:09:45.556Z,980.09
2018-01-03T05:10:45.589Z,980.16
2018-01-03T05:11:45.621Z,980.08
2018-01-03T05:12:45.652Z,979.97
2018-01-03T05:13:45.683Z,980.09
2018-01-03T05:14:45.716Z,980.08
2018-01-03T05:15:45.748Z,979.94
2018-01-03T05:16:45.778Z,980.03
2018-01-03T05:17:45.811Z,980.02
2018-01-03T05:18:45.847Z,979.67
2018-01-03T05:19:45.878Z,979.70
2018-01-03T05:20:45.906Z,979.64
2018-01-03T05:21:45.938Z,979.32
2018-01-03T05:22:45.971Z,979.46
2018-01-03T05:23:46.003Z,979.41
2018-01-03T05:24:46.035Z,979.22
2018-01-03T05:25:46.068Z,979.21
2018-01-03T05:26:46.099Z,979.08
2018-01-03T05:27:46.132Z,978.93
2018-01-03T05:28:46.164Z,978.95
2018-01-03T05:29:46.195Z,978.70
2018-01-03T05:30:46.225Z,978.74
2018-01-03T05:31:46.260Z,978.64
2018-01-03T05:32:46.291Z,978.77
2018-01-03T05:33:46.323Z,978.74
2018-01-03T05:34:46.356Z,978.59
2018-01-03T05:35:46.386Z,978.57
2018-01-03T05:36:46.418Z,978.56
2018-01-03T05:37:46.452Z,978.54
2018-01-03T05:38:46.484Z,978.57
2018-01-03T05:39:46.515Z,978.31
2018-01-03T05:40:46.547Z,978.26
2018-01-03T05:41:46.579Z,978.24
2018-01-03T05:42:46.611Z,978.38
2018-01-03T05:43:46.643Z,978.47
2018-01-03T05:44:46.675Z,978.33
2018-01-03T05:45:46.706Z,978.12
2018-01-03T05:46:46.739Z,978.00
2018-01-03T05:47:46.771Z,978.07
2018-01-03T05:48:46.802Z,978.07
2018-01-03T05:49:46.837Z,978.17
2018-01-03T05:50:46.868Z,977.89
2018-01-03T05:51:46.899Z,977.91
2018-01-03T05:52:46.930Z,977.91
2018-01-03T05:53:46.963Z,978.09
2018-01-03T05:54:46.995Z,978.15
2018-01-03T05:55:47.028Z,977.72
2018-01-03T05:56:47.059Z,977.47
2018-01-03T05:57:47.091Z,977.56
2018-01-03T05:58:47.124Z,977.28
2018-01-03T05:59:47.156Z,977.36
2018-01-03T06:00:47.187Z,977.16
2018-01-03T06:01:47.219Z,976.89
2018-01-03T06:02:47.251Z,977.04
2018-01-03T06:03:47.284Z,977.00
2018-01-03T06:04:47.321Z,977.01
2018-01-03T06:05:47.347Z,976.53
2018-01-03T06:06:47.379Z,976.89
2018-01-03T06:07:47.411Z,976.95
2018-01-03T06:08:47.441Z,977.04
2018-01-03T06:09:47.475Z,977.11
2018-01-03T06:10:47.507Z,977.21
2018-01-03T06:11:47.542Z,977.31
2018-01-03T06:12:47.570Z,976.87
2018-01-03T06:13:47.604Z,976.95
2018-01-03T06:14:47.636Z,976.88
2018-01-03T06:15:47.667Z,976.90
2018-01-03T06:16:47.699Z,976.99
2018-01-03T06:17:47.733Z,977.01
2018-01-03T06:18:47.764Z,976.81
2018-01-03T06:19:47.795Z,976.84
2018-01-03T06:20:47.828Z,976.91
2018-01-03T06:21:47.860Z,976.69
2018-01-03T06:22:47.891Z,976.83
2018-01-03T06:23:47.925Z,976.70
2018-01-03T06:24:47.956Z,976.96
2018-01-03T06:25:47.987Z,976.62
2018-01-03T06:26:48.020Z,976.90
2018-01-03T06:27:48.053Z,976.73
2018-01-03T06:28:48.084Z,976.74
2018-01-03T06:29:48.115Z,976.52
2018-01-03T06:30:48.149Z,976.89
2018-01-03T06:31:48.181Z,976.97
2018-01-03T06:32:48.212Z,976.89
2018-01-03T06:33:48.244Z,976.85
2018-01-03T06:34:48.279Z,976.80
2018-01-03T06:35:48.309Z,976.93
2018-01-03T06:36:48.347Z,976.92
2018-01-03T06:37:48.374Z,977.22
2018-01-03T06:38:48.406Z,977.14
2018-01-03T06:39:48.437Z,977.20
2018-01-03T06:40:48.471Z,977.54
2018-01-03T06:41:48.503Z,977.56
2018-01-03T06:42:48.535Z,977.35
2018-01-03T06:43:48.568Z,977.54
2018-01-03T06:44:48.600Z,977.28
2018-01-03T06:45:48.632Z,977.21
2018-01-03T06:46:48.664Z,977.28
2018-01-03T06:47:48.702Z,977.47
2018-01-03T06:48:48.729Z,977.11
2018-01-03T06:49:48.761Z,977.02
2018-01-03T06:50:48.794Z,976.88
2018-01-03T06:51:48.827Z,976.71
2018-01-03T06:52:48.859Z,977.04
2018-01-03T06:53:48.891Z,976.85
2018-01-03T06:54:48.923Z,976.96
2018-01-03T06:55:48.956Z,976.89
2018-01-03T06:56:48.988Z,976.89
2018-01-03T06:57:49.020Z,976.97
2018-01-03T06:58:49.053Z,976.79
2018-01-03T06:59:49.086Z,976.77
2018-01-03T07:00:49.118Z,976.84
2018-01-03T07:01:49.150Z,976.92
2018-01-03T07:02:49.182Z,976.93
2018-01-03T07:03:49.216Z,977.25
2018-01-03T07:04:49.250Z,977.18
2018-01-03T07:05:49.280Z,977.13
2018-01-03T07:06:49.314Z,976.89
2018-01-03T07:07:49.346Z,976.95
2018-01-03T07:08:49.378Z,976.97
2018-01-03T07:09:49.411Z,977.02
2018-01-03T07:10:49.446Z,977.00
2018-01-03T07:11:49.477Z,977.08
2018-01-03T07:12:49.509Z,976.90
2018-01-03T07:13:49.541Z,977.09
2018-01-03T07:14:49.575Z,977.10
2018-01-03T07:15:49.607Z,977.02
2018-01-03T07:16:49.637Z,977.03
2018-01-03T07:17:49.671Z,976.81
2018-01-03T07:18:49.705Z,976.90
2018-01-03T07:19:49.737Z,976.98
2018-01-03T07:20:49.769Z,977.02
2018-01-03T07:21:49.802Z,976.93
2018-01-03T07:22:49.835Z,976.97
2018-01-03T07:23:49.868Z,977.30
2018-01-03T07:24:49.899Z,976.98
2018-01-03T07:25:49.933Z,977.01
2018-01-03T07:26:49.965Z,977.09
2018-01-03T07:27:49.997Z,976.90
2018-01-03T07:28:50.031Z,977.07
2018-01-03T07:29:50.062Z,977.07
2018-01-03T07:30:50.095Z,977.02
2018-01-03T07:31:50.127Z,977.12
2018-01-03T07:32:50.159Z,977.13
2018-01-03T07:33:50.191Z,977.12
2018-01-03T07:34:50.226Z,977.21
2018-01-03T07:35:50.257Z,977.14
2018-01-03T07:36:50.288Z,977.24
2018-01-03T07:37:50.322Z,977.28
2018-01-03T07:38:50.355Z,977.28
2018-01-03T07:39:50.386Z,977.08
2018-01-03T07:40:50.418Z,977.22
2018-01-03T07:41:50.452Z,977.15
2018-01-03T07:42:50.484Z,977.00
2018-01-03T07:43:50.516Z,977.19
2018-01-03T07:44:50.554Z,976.98
2018-01-03T07:45:50.580Z,977.11
2018-01-03T07:46:50.613Z,977.12
2018-01-03T07:47:50.647Z,976.99
2018-01-03T07:48:50.678Z,977.13
2018-01-03T07:49:50.710Z,977.35
2018-01-03T07:50:50.744Z,977.86
2018-01-03T07:51:50.778Z,977.80
2018-01-03T07:52:50.809Z,977.80
2018-01-03T07:53:50.842Z,978.02
2018-01-03T07:54:50.874Z,978.37
2018-01-03T07:55:50.907Z,978.23
2018-01-03T07:56:50.938Z,978.32
2018-01-03T07:57:50.970Z,978.33
2018-01-03T07:58:51.003Z,978.40
2018-01-03T07:59:51.037Z,978.57
2018-01-03T08:00:51.069Z,978.57
2018-01-03T08:01:51.099Z,978.49
2018-01-03T08:02:51.174Z,978.63
2018-01-03T08:03:51.164Z,978.70
2018-01-03T08:04:51.195Z,978.63
2018-01-03T08:05:51.227Z,978.66
2018-01-03T08:06:51.259Z,978.60
2018-01-03T08:07:51.290Z,978.61
2018-01-03T08:08:51.323Z,978.84
2018-01-03T08:09:51.352Z,978.89
2018-01-03T08:10:51.384Z,979.03
2018-01-03T08:11:51.416Z,979.10
2018-01-03T08:12:51.444Z,979.12
2018-01-03T08:13:51.477Z,979.11
2018-01-03T08:14:51.507Z,979.07
2018-01-03T08:15:51.540Z,979.09
2018-01-03T08:16:51.570Z,979.01
2018-01-03T08:17:51.602Z,979.04
2018-01-03T08:18:51.632Z,978.95
2018-01-03T08:19:51.663Z,978.90
2018-01-03T08:20:51.694Z,979.00
2018-01-03T08:21:51.725Z,979.04
2018-01-03T08:22:51.755Z,978.90
2018-01-03T08:23:51.853Z,978.82
2018-01-03T08:24:51.817Z,978.85
2018-01-03T08:25:51.848Z,978.85
2018-01-03T08:26:51.879Z,978.77
2018-01-03T08:27:51.910Z,978.68
2018-01-03T08:28:51.939Z,978.54
2018-01-03T08:29:51.972Z,978.58
2018-01-03T08:30:52.002Z,978.53
2018-01-03T08:31:52.033Z,978.58
2018-01-03T08:32:52.062Z,978.58
2018-01-03T08:33:52.094Z,978.63
2018-01-03T08:34:52.125Z,978.69
2018-01-03T08:35:52.155Z,978.78
2018-01-03T08:36:52.184Z,978.74
2018-01-03T08:37:52.215Z,978.76
2018-01-03T08:38:52.261Z,978.73
2018-01-03T08:39:52.277Z,978.72
2018-01-03T08:40:52.307Z,978.68
2018-01-03T08:41:52.337Z,978.73
2018-01-03T08:42:52.368Z,978.71
2018-01-03T08:43:52.407Z,978.81
2018-01-03T08:44:52.430Z,978.93
2018-01-03T08:45:52.461Z,978.89
2018-01-03T08:46:52.489Z,978.86
2018-01-03T08:47:52.520Z,978.86
2018-01-03T08:48:52.550Z,978.70
2018-01-03T08:49:52.581Z,978.51
2018-01-03T08:50:52.613Z,978.41
2018-01-03T08:51:52.642Z,978.43
2018-01-03T08:52:52.671Z,978.58
2018-01-03T08:53:52.703Z,978.64
2018-01-03T08:54:52.735Z,978.71
2018-01-03T08:55:52.764Z,978.71
2018-01-03T08:56:52.794Z,978.80
2018-01-03T08:57:52.825Z,978.89
2018-01-03T08:58:52.855Z,979.04
2018-01-03T08:59:52.887Z,979.16
2018-01-03T09:00:52.915Z,979.22
2018-01-03T09:01:52.947Z,979.26
2018-01-03T09:02:52.979Z,979.28
2018-01-03T09:03:53.008Z,979.23
2018-01-03T09:04:53.038Z,979.21
2018-01-03T09:05:53.070Z,979.29
2018-01-03T09:06:53.101Z,979.37
2018-01-03T09:07:53.130Z,979.34
2018-01-03T09:08:53.162Z,979.28
2018-01-03T09:09:53.196Z,979.23
2018-01-03T09:10:53.223Z,979.22
2018-01-03T09:11:53.254Z,979.18
2018-01-03T09:12:53.284Z,979.14
2018-01-03T09:13:53.314Z,979.12
2018-01-03T09:14:53.346Z,979.16
2018-01-03T09:15:53.377Z,978.99
2018-01-03T09:16:53.406Z,979.13
2018-01-03T09:17:53.437Z,979.19
2018-01-03T09:18:53.467Z,979.20
2018-01-03T09:19:53.499Z,979.24
2018-01-03T09:20:53.529Z,979.20
2018-01-03T09:21:53.562Z,979.16
2018-01-03T09:22:53.591Z,979.28
2018-01-03T09:23:53.622Z,979.39
2018-01-03T09:24:53.652Z,979.40
2018-01-03T09:25:53.683Z,979.43
2018-01-03T09:26:53.714Z,979.47
2018-01-03T09:27:53.745Z,979.48
2018-01-03T09:28:53.775Z,979.56
2018-01-03T09:29:53.805Z,979.67
2018-01-03T09:30:53.836Z,979.77
2018-01-03T09:31:53.868Z,979.79
2018-01-03T09:32:53.897Z,979.68
2018-01-03T09:33:53.929Z,979.84
2018-01-03T09:34:53.959Z,979.78
2018-01-03T09:35:53.991Z,979.53
2018-01-03T09:36:54.020Z,979.24
2018-01-03T09:37:54.052Z,979.32
2018-01-03T09:38:54.082Z,979.32
2018-01-03T09:39:54.112Z,979.54
2018-01-03T09:40:54.142Z,979.80
2018-01-03T09:41:54.174Z,980.00
2018-01-03T09:42:54.205Z,980.16
2018-01-03T09:43:54.239Z,980.39
2018-01-03T09:44:54.265Z,980.46
2018-01-03T09:45:54.295Z,980.55
2018-01-03T09:46:54.326Z,980.64
2018-01-03T09:47:54.358Z,980.70
2018-01-03T09:48:54.388Z,980.65
2018-01-03T09:49:54.419Z,980.81
2018-01-03T09:50:54.451Z,980.71
2018-01-03T09:51:54.480Z,980.76
2018-01-03T09:52:54.510Z,981.02
2018-01-03T09:53:54.541Z,981.17
2018-01-03T09:54:54.571Z,981.20
2018-01-03T09:55:54.601Z,981.22
2018-01-03T09:56:54.632Z,981.33
2018-01-03T09:57:54.662Z,981.37
2018-01-03T09:58:54.693Z,981.46
2018-01-03T09:59:54.723Z,981.55
2018-01-03T10:00:54.752Z,981.76
2018-01-03T10:01:54.783Z,982.45
2018-01-03T10:02:54.814Z,982.54
2018-01-03T10:03:54.847Z,982.71
2018-01-03T10:04:54.874Z,982.87
2018-01-03T10:05:54.904Z,983.30
2018-01-03T10:06:54.933Z,983.11
2018-01-03T10:07:54.965Z,983.09
2018-01-03T10:08:54.994Z,983.36
2018-01-03T10:09:55.024Z,983.29
2018-01-03T10:10:55.054Z,983.04
2018-01-03T10:11:55.084Z,983.10
2018-01-03T10:12:55.113Z,982.97
2018-01-03T10:13:55.141Z,983.12
2018-01-03T10:14:55.173Z,983.16
2018-01-03T10:15:55.202Z,983.19
2018-01-03T10:16:55.230Z,983.13
2018-01-03T10:17:55.259Z,983.11
2018-01-03T10:18:55.288Z,983.14
2018-01-03T10:19:55.318Z,983.48
2018-01-03T10:20:55.346Z,983.37
2018-01-03T10:21:55.374Z,983.50
2018-01-03T10:22:55.403Z,983.78
2018-01-03T10:23:55.434Z,983.70
2018-01-03T10:24:55.462Z,983.65
2018-01-03T10:25:55.490Z,983.74
2018-01-03T10:26:55.519Z,983.72
2018-01-03T10:27:55.547Z,983.41
2018-01-03T10:28:55.576Z,983.33
2018-01-03T10:29:55.604Z,983.45
2018-01-03T10:30:55.639Z,983.59
2018-01-03T10:31:55.662Z,983.25
2018-01-03T10:32:55.690Z,983.33
2018-01-03T10:33:55.718Z,983.19
2018-01-03T10:34:55.747Z,983.05
2018-01-03T10:35:55.775Z,983.07
2018-01-03T10:36:55.803Z,983.25
2018-01-03T10:37:55.831Z,983.30
2018-01-03T10:38:55.860Z,983.29
2018-01-03T10:39:55.889Z,983.06
2018-01-03T10:40:55.915Z,983.11
2018-01-03T10:41:55.945Z,983.02
2018-01-03T10:42:55.973Z,982.77
2018-01-03T10:43:56.007Z,982.53
2018-01-03T10:44:56.031Z,982.68
2018-01-03T10:45:56.057Z,982.70
2018-01-03T10:46:56.086Z,982.77
2018-01-03T10:47:56.115Z,982.81
2018-01-03T10:48:56.141Z,982.97
2018-01-03T10:49:56.170Z,982.92
2018-01-03T10:50:56.200Z,982.89
2018-01-03T10:51:56.228Z,982.88
2018-01-03T10:52:56.259Z,983.02
2018-01-03T10:53:56.284Z,983.03
2018-01-03T10:54:56.313Z,982.95
2018-01-03T10:55:56.341Z,982.84
2018-01-03T10:56:56.369Z,983.04
2018-01-03T10:57:56.397Z,983.12
2018-01-03T10:58:56.426Z,983.18
2018-01-03T10:59:56.461Z,983.30
2018-01-03T11:00:56.482Z,983.31
2018-01-03T11:01:56.511Z,983.27
2018-01-03T11:02:56.541Z,983.33
2018-01-03T11:03:56.570Z,983.41
2018-01-03T11:04:56.598Z,983.40
2018-01-03T11:05:56.627Z,983.26
2018-01-03T11:06:56.655Z,983.34
2018-01-03T11:07:56.684Z,983.58
2018-01-03T11:08:56.712Z,983.83
2018-01-03T11:09:56.740Z,983.96
2018-01-03T11:10:56.768Z,983.97
2018-01-03T11:11:56.798Z,984.05
2018-01-03T11:12:56.825Z,984.16
2018-01-03T11:13:56.855Z,984.21
2018-01-03T11:14:56.884Z,984.18
2018-01-03T11:15:56.914Z,984.12
2018-01-03T11:16:56.942Z,984.19
2018-01-03T11:17:56.971Z,984.17
2018-01-03T11:18:56.999Z,984.23
2018-01-03T11:19:57.029Z,984.12
2018-01-03T11:20:57.055Z,984.16
2018-01-03T11:21:57.085Z,984.17
2018-01-03T11:22:57.114Z,984.31
2018-01-03T11:23:57.142Z,984.42
2018-01-03T11:24:57.171Z,984.28
2018-01-03T11:25:57.200Z,984.40
2018-01-03T11:26:57.231Z,984.39
2018-01-03T11:27:57.257Z,984.36
2018-01-03T11:28:57.287Z,984.24
2018-01-03T11:29:57.316Z,984.29
2018-01-03T11:30:57.345Z,984.49
2018-01-03T11:31:57.374Z,984.40
2018-01-03T11:32:57.402Z,984.35
2018-01-03T11:33:57.432Z,984.39
2018-01-03T11:34:57.461Z,984.44
2018-01-03T11:35:57.491Z,984.42
2018-01-03T11:36:57.519Z,984.49
2018-01-03T11:37:57.548Z,984.51
2018-01-03T11:38:57.578Z,984.49
2018-01-03T11:39:57.607Z,984.60
2018-01-03T11:40:57.635Z,984.61
2018-01-03T11:41:57.665Z,984.79
2018-01-03T11:42:57.696Z,984.77
2018-01-03T11:43:57.724Z,984.74
2018-01-03T11:44:57.753Z,984.87
2018-01-03T11:45:57.783Z,984.96
2018-01-03T11:46:57.811Z,985.03
2018-01-03T11:47:57.843Z,985.11
2018-01-03T11:48:57.871Z,985.17
2018-01-03T11:49:57.901Z,985.28
2018-01-03T11:50:57.932Z,985.12
2018-01-03T11:51:57.968Z,985.24
2018-01-03T11:52:57.990Z,985.10
2018-01-03T11:53:58.021Z,985.15
2018-01-03T11:54:58.057Z,985.18
2018-01-03T11:55:58.082Z,985.22
2018-01-03T11:56:58.112Z,985.22
2018-01-03T11:57:58.143Z,985.20
2018-01-03T11:58:58.173Z,985.29
2018-01-03T11:59:58.204Z,985.22
2018-01-03T12:00:58.234Z,985.37
2018-01-03T12:01:58.265Z,985.54
2018-01-03T12:02:58.296Z,985.49
2018-01-03T12:03:58.326Z,985.50
2018-01-03T12:04:58.356Z,985.43
2018-01-03T12:05:58.387Z,985.57
2018-01-03T12:06:58.417Z,985.55
2018-01-03T12:07:58.448Z,985.68
2018-01-03T12:08:58.477Z,985.83
2018-01-03T12:09:58.508Z,985.94
2018-01-03T12:10:58.540Z,987.18
2018-01-03T12:11:58.571Z,986.10
2018-01-03T12:12:58.601Z,986.11
2018-01-03T12:13:58.632Z,985.85
2018-01-03T12:14:58.666Z,985.75
2018-01-03T12:15:58.696Z,985.86
2018-01-03T12:16:58.727Z,985.85
2018-01-03T12:17:58.760Z,985.83
2018-01-03T12:18:58.792Z,986.21
2018-01-03T12:19:58.825Z,985.82
2018-01-03T12:20:58.855Z,985.72
2018-01-03T12:21:58.889Z,985.73
2018-01-03T12:22:58.921Z,985.96
2018-01-03T12:23:58.953Z,985.90
2018-01-03T12:24:58.984Z,986.01
2018-01-03T12:25:59.018Z,986.31
2018-01-03T12:26:59.050Z,985.92
2018-01-03T12:27:59.083Z,987.51
2018-01-03T12:28:59.115Z,987.50